sensor_id;sensor_type;location;lat;lon;timestamp;P1;durP1;ratioP1;P2;durP2;ratioP2
9254;SDS011;4663;49.120;9.730;2022-09-01T00:01:04;31.15;;;29.30;;
9254;SDS011;4663;49.120;9.730;2022-09-01T00:03:34;29.77;;;28.05;;
9254;SDS011;4663;49.120;9.730;2022-09-01T00:06:00;30.70;;;28.90;;
9254;SDS011;4663;49.120;9.730;2022-09-01T00:08:28;30.95;;;29.20;;
9254;SDS011;4663;49.120;9.730;2022-09-01T00:10:53;29.20;;;27.52;;
9254;SDS011;4663;49.120;9.730;2022-09-01T00:13:19;28.63;;;26.98;;
9254;SDS011;4663;49.120;9.730;2022-09-01T00:15:44;30.13;;;28.42;;
9254;SDS011;4663;49.120;9.730;2022-09-01T00:18:10;29.80;;;28.10;;
9254;SDS011;4663;49.120;9.730;2022-09-01T00:20:35;29.90;;;28.15;;
9254;SDS011;4663;49.120;9.730;2022-09-01T00:23:00;29.70;;;28.05;;
9254;SDS011;4663;49.120;9.730;2022-09-01T00:25:26;26.92;;;25.27;;
9254;SDS011;4663;49.120;9.730;2022-09-01T00:27:52;29.75;;;28.00;;
9254;SDS011;4663;49.120;9.730;2022-09-01T00:30:18;27.83;;;26.30;;
9254;SDS011;4663;49.120;9.730;2022-09-01T00:32:44;30.45;;;28.77;;
9254;SDS011;4663;49.120;9.730;2022-09-01T00:35:14;26.50;;;25.00;;
9254;SDS011;4663;49.120;9.730;2022-09-01T00:37:41;27.83;;;26.25;;
9254;SDS011;4663;49.120;9.730;2022-09-01T00:40:07;27.95;;;26.40;;
9254;SDS011;4663;49.120;9.730;2022-09-01T00:42:35;29.90;;;28.25;;
9254;SDS011;4663;49.120;9.730;2022-09-01T00:45:01;28.88;;;27.08;;
9254;SDS011;4663;49.120;9.730;2022-09-01T00:47:26;31.98;;;30.08;;
9254;SDS011;4663;49.120;9.730;2022-09-01T00:49:51;33.03;;;31.05;;
9254;SDS011;4663;49.120;9.730;2022-09-01T00:54:55;38.63;;;36.25;;
9254;SDS011;4663;49.120;9.730;2022-09-01T00:57:24;38.55;;;36.38;;
9254;SDS011;4663;49.120;9.730;2022-09-01T01:00:24;44.00;;;41.58;;
9254;SDS011;4663;49.120;9.730;2022-09-01T01:02:47;45.33;;;42.80;;
9254;SDS011;4663;49.120;9.730;2022-09-01T01:05:13;43.58;;;41.17;;
9254;SDS011;4663;49.120;9.730;2022-09-01T01:07:40;42.95;;;40.63;;
9254;SDS011;4663;49.120;9.730;2022-09-01T01:10:10;43.42;;;41.00;;
9254;SDS011;4663;49.120;9.730;2022-09-01T01:12:40;44.15;;;41.67;;
9254;SDS011;4663;49.120;9.730;2022-09-01T01:15:07;46.85;;;44.20;;
9254;SDS011;4663;49.120;9.730;2022-09-01T01:17:37;46.28;;;43.78;;
9254;SDS011;4663;49.120;9.730;2022-09-01T01:20:03;44.22;;;41.88;;
9254;SDS011;4663;49.120;9.730;2022-09-01T01:25:41;48.78;;;46.22;;
9254;SDS011;4663;49.120;9.730;2022-09-01T01:30:51;49.65;;;46.85;;
9254;SDS011;4663;49.120;9.730;2022-09-01T01:33:20;49.92;;;47.28;;
9254;SDS011;4663;49.120;9.730;2022-09-01T01:35:53;46.97;;;44.45;;
9254;SDS011;4663;49.120;9.730;2022-09-01T01:38:22;48.38;;;45.70;;
9254;SDS011;4663;49.120;9.730;2022-09-01T01:40:48;50.25;;;47.50;;
9254;SDS011;4663;49.120;9.730;2022-09-01T01:43:16;48.60;;;46.05;;
9254;SDS011;4663;49.120;9.730;2022-09-01T01:45:44;50.03;;;47.28;;
9254;SDS011;4663;49.120;9.730;2022-09-01T01:48:13;49.30;;;46.53;;
9254;SDS011;4663;49.120;9.730;2022-09-01T01:50:46;48.03;;;45.38;;
9254;SDS011;4663;49.120;9.730;2022-09-01T01:53:12;48.70;;;46.03;;
9254;SDS011;4663;49.120;9.730;2022-09-01T01:55:41;47.50;;;44.90;;
9254;SDS011;4663;49.120;9.730;2022-09-01T01:58:08;45.83;;;43.20;;
9254;SDS011;4663;49.120;9.730;2022-09-01T02:00:36;44.33;;;41.85;;
9254;SDS011;4663;49.120;9.730;2022-09-01T02:03:02;43.15;;;40.78;;
9254;SDS011;4663;49.120;9.730;2022-09-01T02:05:30;47.20;;;44.55;;
9254;SDS011;4663;49.120;9.730;2022-09-01T02:07:58;46.42;;;43.90;;
9254;SDS011;4663;49.120;9.730;2022-09-01T02:10:29;43.42;;;41.03;;
9254;SDS011;4663;49.120;9.730;2022-09-01T02:12:57;39.70;;;37.38;;
9254;SDS011;4663;49.120;9.730;2022-09-01T02:15:28;36.75;;;34.67;;
9254;SDS011;4663;49.120;9.730;2022-09-01T02:18:03;33.65;;;31.65;;
9254;SDS011;4663;49.120;9.730;2022-09-01T02:20:29;33.20;;;31.15;;
9254;SDS011;4663;49.120;9.730;2022-09-01T02:22:56;32.53;;;30.52;;
9254;SDS011;4663;49.120;9.730;2022-09-01T02:25:22;32.97;;;30.98;;
9254;SDS011;4663;49.120;9.730;2022-09-01T02:27:48;32.75;;;30.73;;
9254;SDS011;4663;49.120;9.730;2022-09-01T02:30:17;28.98;;;27.20;;
9254;SDS011;4663;49.120;9.730;2022-09-01T02:32:43;29.00;;;27.17;;
9254;SDS011;4663;49.120;9.730;2022-09-01T02:35:08;27.00;;;25.35;;
9254;SDS011;4663;49.120;9.730;2022-09-01T02:37:34;27.50;;;25.83;;
9254;SDS011;4663;49.120;9.730;2022-09-01T02:40:02;27.42;;;25.67;;
9254;SDS011;4663;49.120;9.730;2022-09-01T02:42:27;27.73;;;25.88;;
9254;SDS011;4663;49.120;9.730;2022-09-01T02:44:54;27.73;;;26.02;;
9254;SDS011;4663;49.120;9.730;2022-09-01T02:47:20;27.55;;;25.75;;
9254;SDS011;4663;49.120;9.730;2022-09-01T02:49:48;28.13;;;26.45;;
9254;SDS011;4663;49.120;9.730;2022-09-01T02:52:14;28.85;;;26.98;;
9254;SDS011;4663;49.120;9.730;2022-09-01T02:54:42;29.60;;;27.80;;
9254;SDS011;4663;49.120;9.730;2022-09-01T02:57:10;28.10;;;26.38;;
9254;SDS011;4663;49.120;9.730;2022-09-01T02:59:36;27.33;;;25.60;;
9254;SDS011;4663;49.120;9.730;2022-09-01T03:02:02;27.63;;;25.85;;
9254;SDS011;4663;49.120;9.730;2022-09-01T03:04:28;28.35;;;26.60;;
9254;SDS011;4663;49.120;9.730;2022-09-01T03:06:59;26.58;;;24.90;;
9254;SDS011;4663;49.120;9.730;2022-09-01T03:09:29;28.80;;;26.40;;
9254;SDS011;4663;49.120;9.730;2022-09-01T03:11:56;27.23;;;25.38;;
9254;SDS011;4663;49.120;9.730;2022-09-01T03:14:23;25.85;;;24.25;;
9254;SDS011;4663;49.120;9.730;2022-09-01T03:16:49;27.52;;;25.67;;
9254;SDS011;4663;49.120;9.730;2022-09-01T03:19:14;26.40;;;24.50;;
9254;SDS011;4663;49.120;9.730;2022-09-01T03:21:41;26.80;;;25.10;;
9254;SDS011;4663;49.120;9.730;2022-09-01T03:24:12;24.10;;;22.45;;
9254;SDS011;4663;49.120;9.730;2022-09-01T03:26:41;27.00;;;25.30;;
9254;SDS011;4663;49.120;9.730;2022-09-01T03:29:08;26.27;;;24.52;;
9254;SDS011;4663;49.120;9.730;2022-09-01T03:31:34;24.35;;;22.73;;
9254;SDS011;4663;49.120;9.730;2022-09-01T03:34:00;25.08;;;23.48;;
9254;SDS011;4663;49.120;9.730;2022-09-01T03:36:27;24.17;;;22.63;;
9254;SDS011;4663;49.120;9.730;2022-09-01T03:38:55;26.33;;;24.63;;
9254;SDS011;4663;49.120;9.730;2022-09-01T03:41:22;25.23;;;23.60;;
9254;SDS011;4663;49.120;9.730;2022-09-01T03:43:50;25.20;;;23.60;;
9254;SDS011;4663;49.120;9.730;2022-09-01T03:46:19;25.35;;;23.58;;
9254;SDS011;4663;49.120;9.730;2022-09-01T03:48:55;28.48;;;26.52;;
9254;SDS011;4663;49.120;9.730;2022-09-01T03:51:24;25.20;;;23.40;;
9254;SDS011;4663;49.120;9.730;2022-09-01T03:53:52;26.15;;;24.17;;
9254;SDS011;4663;49.120;9.730;2022-09-01T03:56:18;28.02;;;26.08;;
9254;SDS011;4663;49.120;9.730;2022-09-01T03:58:45;31.92;;;29.67;;
9254;SDS011;4663;49.120;9.730;2022-09-01T04:01:11;32.55;;;30.40;;
9254;SDS011;4663;49.120;9.730;2022-09-01T04:03:37;36.55;;;34.13;;
9254;SDS011;4663;49.120;9.730;2022-09-01T04:06:04;41.35;;;38.85;;
9254;SDS011;4663;49.120;9.730;2022-09-01T04:08:33;39.10;;;36.75;;
9254;SDS011;4663;49.120;9.730;2022-09-01T04:11:00;37.95;;;35.63;;
9254;SDS011;4663;49.120;9.730;2022-09-01T04:13:36;38.08;;;35.80;;
9254;SDS011;4663;49.120;9.730;2022-09-01T04:16:03;39.75;;;37.33;;
9254;SDS011;4663;49.120;9.730;2022-09-01T04:18:34;41.00;;;38.65;;
9254;SDS011;4663;49.120;9.730;2022-09-01T04:21:00;36.13;;;33.97;;
9254;SDS011;4663;49.120;9.730;2022-09-01T04:23:26;30.10;;;28.10;;
9254;SDS011;4663;49.120;9.730;2022-09-01T04:28:24;26.50;;;24.80;;
9254;SDS011;4663;49.120;9.730;2022-09-01T04:30:58;26.13;;;24.40;;
9254;SDS011;4663;49.120;9.730;2022-09-01T04:33:29;26.20;;;24.35;;
9254;SDS011;4663;49.120;9.730;2022-09-01T04:36:01;25.63;;;23.85;;
9254;SDS011;4663;49.120;9.730;2022-09-01T04:38:28;25.73;;;23.95;;
9254;SDS011;4663;49.120;9.730;2022-09-01T04:40:54;27.75;;;25.77;;
9254;SDS011;4663;49.120;9.730;2022-09-01T04:43:21;25.42;;;23.60;;
9254;SDS011;4663;49.120;9.730;2022-09-01T04:45:47;27.20;;;25.35;;
9254;SDS011;4663;49.120;9.730;2022-09-01T04:48:16;27.70;;;25.83;;
9254;SDS011;4663;49.120;9.730;2022-09-01T04:50:43;27.05;;;25.25;;
9254;SDS011;4663;49.120;9.730;2022-09-01T04:53:09;29.85;;;27.73;;
9254;SDS011;4663;49.120;9.730;2022-09-01T04:55:37;27.13;;;25.25;;
9254;SDS011;4663;49.120;9.730;2022-09-01T04:58:07;30.17;;;28.13;;
9254;SDS011;4663;49.120;9.730;2022-09-01T05:00:38;34.30;;;31.95;;
9254;SDS011;4663;49.120;9.730;2022-09-01T05:03:04;38.15;;;35.83;;
9254;SDS011;4663;49.120;9.730;2022-09-01T05:05:38;44.60;;;41.95;;
9254;SDS011;4663;49.120;9.730;2022-09-01T05:08:08;47.42;;;44.70;;
9254;SDS011;4663;49.120;9.730;2022-09-01T05:10:39;48.58;;;45.72;;
9254;SDS011;4663;49.120;9.730;2022-09-01T05:13:11;49.67;;;46.97;;
9254;SDS011;4663;49.120;9.730;2022-09-01T05:15:38;49.47;;;46.67;;
9254;SDS011;4663;49.120;9.730;2022-09-01T05:18:10;50.80;;;47.88;;
9254;SDS011;4663;49.120;9.730;2022-09-01T05:20:47;54.50;;;51.38;;
9254;SDS011;4663;49.120;9.730;2022-09-01T05:23:14;51.95;;;49.00;;
9254;SDS011;4663;49.120;9.730;2022-09-01T05:25:43;54.97;;;51.80;;
9254;SDS011;4663;49.120;9.730;2022-09-01T05:28:12;48.55;;;45.85;;
9254;SDS011;4663;49.120;9.730;2022-09-01T05:30:39;54.47;;;50.88;;
9254;SDS011;4663;49.120;9.730;2022-09-01T05:33:05;51.22;;;48.30;;
9254;SDS011;4663;49.120;9.730;2022-09-01T05:35:38;51.58;;;48.58;;
9254;SDS011;4663;49.120;9.730;2022-09-01T05:38:10;54.05;;;50.90;;
9254;SDS011;4663;49.120;9.730;2022-09-01T05:40:41;52.70;;;49.72;;
9254;SDS011;4663;49.120;9.730;2022-09-01T05:43:08;51.10;;;48.20;;
9254;SDS011;4663;49.120;9.730;2022-09-01T05:45:36;51.38;;;48.40;;
9254;SDS011;4663;49.120;9.730;2022-09-01T05:48:06;49.92;;;47.05;;
9254;SDS011;4663;49.120;9.730;2022-09-01T05:50:33;50.65;;;47.60;;
9254;SDS011;4663;49.120;9.730;2022-09-01T05:52:59;50.60;;;47.65;;
9254;SDS011;4663;49.120;9.730;2022-09-01T05:55:25;52.63;;;49.53;;
9254;SDS011;4663;49.120;9.730;2022-09-01T05:57:51;54.58;;;51.50;;
9254;SDS011;4663;49.120;9.730;2022-09-01T06:00:18;49.10;;;46.25;;
9254;SDS011;4663;49.120;9.730;2022-09-01T06:02:44;48.55;;;45.65;;
9254;SDS011;4663;49.120;9.730;2022-09-01T06:05:10;48.97;;;46.05;;
9254;SDS011;4663;49.120;9.730;2022-09-01T06:07:39;53.53;;;50.53;;
9254;SDS011;4663;49.120;9.730;2022-09-01T06:10:07;50.03;;;47.17;;
9254;SDS011;4663;49.120;9.730;2022-09-01T06:12:32;50.75;;;47.80;;
9254;SDS011;4663;49.120;9.730;2022-09-01T06:14:58;51.50;;;48.58;;
9254;SDS011;4663;49.120;9.730;2022-09-01T06:17:25;48.20;;;45.35;;
9254;SDS011;4663;49.120;9.730;2022-09-01T06:19:53;47.63;;;44.83;;
9254;SDS011;4663;49.120;9.730;2022-09-01T06:22:23;46.78;;;44.03;;
9254;SDS011;4663;49.120;9.730;2022-09-01T06:24:51;47.90;;;45.15;;
9254;SDS011;4663;49.120;9.730;2022-09-01T06:27:18;46.95;;;44.00;;
9254;SDS011;4663;49.120;9.730;2022-09-01T06:29:44;49.42;;;46.45;;
9254;SDS011;4663;49.120;9.730;2022-09-01T06:32:11;50.22;;;47.15;;
9254;SDS011;4663;49.120;9.730;2022-09-01T06:34:38;49.95;;;46.60;;
9254;SDS011;4663;49.120;9.730;2022-09-01T06:37:06;50.15;;;47.10;;
9254;SDS011;4663;49.120;9.730;2022-09-01T06:39:32;45.70;;;42.90;;
9254;SDS011;4663;49.120;9.730;2022-09-01T06:41:58;47.92;;;45.05;;
9254;SDS011;4663;49.120;9.730;2022-09-01T06:44:26;44.90;;;42.25;;
9254;SDS011;4663;49.120;9.730;2022-09-01T06:46:54;39.38;;;36.83;;
9254;SDS011;4663;49.120;9.730;2022-09-01T06:49:20;36.20;;;33.90;;
9254;SDS011;4663;49.120;9.730;2022-09-01T06:51:57;36.47;;;34.08;;
9254;SDS011;4663;49.120;9.730;2022-09-01T06:54:27;34.67;;;32.40;;
9254;SDS011;4663;49.120;9.730;2022-09-01T06:56:55;32.40;;;30.38;;
9254;SDS011;4663;49.120;9.730;2022-09-01T06:59:21;34.58;;;32.35;;
9254;SDS011;4663;49.120;9.730;2022-09-01T07:01:47;31.73;;;29.63;;
9254;SDS011;4663;49.120;9.730;2022-09-01T07:04:16;31.90;;;29.88;;
9254;SDS011;4663;49.120;9.730;2022-09-01T07:06:44;34.05;;;31.67;;
9254;SDS011;4663;49.120;9.730;2022-09-01T07:09:09;34.72;;;32.53;;
9254;SDS011;4663;49.120;9.730;2022-09-01T07:11:36;33.63;;;31.42;;
9254;SDS011;4663;49.120;9.730;2022-09-01T07:14:04;35.15;;;33.03;;
9254;SDS011;4663;49.120;9.730;2022-09-01T07:16:31;36.58;;;34.33;;
9254;SDS011;4663;49.120;9.730;2022-09-01T07:19:04;37.28;;;34.90;;
9254;SDS011;4663;49.120;9.730;2022-09-01T07:21:34;35.63;;;33.20;;
9254;SDS011;4663;49.120;9.730;2022-09-01T07:23:59;34.78;;;32.67;;
9254;SDS011;4663;49.120;9.730;2022-09-01T07:26:28;35.67;;;33.45;;
9254;SDS011;4663;49.120;9.730;2022-09-01T07:28:54;38.40;;;36.08;;
9254;SDS011;4663;49.120;9.730;2022-09-01T07:31:24;39.53;;;37.08;;
9254;SDS011;4663;49.120;9.730;2022-09-01T07:33:53;34.72;;;32.58;;
9254;SDS011;4663;49.120;9.730;2022-09-01T07:36:21;35.50;;;33.33;;
9254;SDS011;4663;49.120;9.730;2022-09-01T07:38:46;36.70;;;34.50;;
9254;SDS011;4663;49.120;9.730;2022-09-01T07:41:18;37.90;;;35.60;;
9254;SDS011;4663;49.120;9.730;2022-09-01T07:43:46;36.33;;;34.13;;
9254;SDS011;4663;49.120;9.730;2022-09-01T07:46:15;34.97;;;32.78;;
9254;SDS011;4663;49.120;9.730;2022-09-01T07:48:42;35.53;;;33.30;;
9254;SDS011;4663;49.120;9.730;2022-09-01T07:51:10;37.15;;;34.92;;
9254;SDS011;4663;49.120;9.730;2022-09-01T07:53:37;37.72;;;35.45;;
9254;SDS011;4663;49.120;9.730;2022-09-01T07:56:07;37.08;;;34.80;;
9254;SDS011;4663;49.120;9.730;2022-09-01T07:58:34;38.25;;;36.05;;
9254;SDS011;4663;49.120;9.730;2022-09-01T08:01:06;39.03;;;36.78;;
9254;SDS011;4663;49.120;9.730;2022-09-01T08:03:36;38.60;;;36.30;;
9254;SDS011;4663;49.120;9.730;2022-09-01T08:06:03;35.45;;;33.40;;
9254;SDS011;4663;49.120;9.730;2022-09-01T08:08:30;35.67;;;33.45;;
9254;SDS011;4663;49.120;9.730;2022-09-01T08:10:56;32.67;;;30.75;;
9254;SDS011;4663;49.120;9.730;2022-09-01T08:13:21;35.88;;;33.78;;
9254;SDS011;4663;49.120;9.730;2022-09-01T08:15:47;34.30;;;32.10;;
9254;SDS011;4663;49.120;9.730;2022-09-01T08:18:12;31.67;;;29.88;;
9254;SDS011;4663;49.120;9.730;2022-09-01T08:20:39;32.10;;;30.20;;
9254;SDS011;4663;49.120;9.730;2022-09-01T08:23:09;33.35;;;31.45;;
9254;SDS011;4663;49.120;9.730;2022-09-01T08:25:36;33.58;;;31.60;;
9254;SDS011;4663;49.120;9.730;2022-09-01T08:28:03;29.17;;;27.33;;
9254;SDS011;4663;49.120;9.730;2022-09-01T08:30:30;26.45;;;24.50;;
9254;SDS011;4663;49.120;9.730;2022-09-01T08:32:57;25.52;;;23.95;;
9254;SDS011;4663;49.120;9.730;2022-09-01T08:35:23;25.17;;;23.50;;
9254;SDS011;4663;49.120;9.730;2022-09-01T08:37:48;24.13;;;22.55;;
9254;SDS011;4663;49.120;9.730;2022-09-01T08:40:15;23.95;;;22.40;;
9254;SDS011;4663;49.120;9.730;2022-09-01T08:50:44;25.17;;;23.58;;
9254;SDS011;4663;49.120;9.730;2022-09-01T08:53:38;23.58;;;22.25;;
9254;SDS011;4663;49.120;9.730;2022-09-01T08:56:30;24.05;;;22.70;;
9254;SDS011;4663;49.120;9.730;2022-09-01T08:59:00;24.00;;;22.70;;
9254;SDS011;4663;49.120;9.730;2022-09-01T09:01:30;26.98;;;25.48;;
9254;SDS011;4663;49.120;9.730;2022-09-01T09:04:08;27.38;;;25.85;;
9254;SDS011;4663;49.120;9.730;2022-09-01T09:06:52;28.45;;;26.77;;
9254;SDS011;4663;49.120;9.730;2022-09-01T09:09:40;28.17;;;26.58;;
9254;SDS011;4663;49.120;9.730;2022-09-01T09:17:40;26.02;;;24.52;;
9254;SDS011;4663;49.120;9.730;2022-09-01T09:20:13;25.17;;;23.77;;
9254;SDS011;4663;49.120;9.730;2022-09-01T09:22:39;25.80;;;24.35;;
9254;SDS011;4663;49.120;9.730;2022-09-01T09:25:09;26.38;;;24.88;;
9254;SDS011;4663;49.120;9.730;2022-09-01T09:27:42;24.67;;;23.23;;
9254;SDS011;4663;49.120;9.730;2022-09-01T09:37:51;27.92;;;26.42;;
9254;SDS011;4663;49.120;9.730;2022-09-01T09:40:24;27.45;;;25.75;;
9254;SDS011;4663;49.120;9.730;2022-09-01T09:45:22;30.08;;;28.40;;
9254;SDS011;4663;49.120;9.730;2022-09-01T09:48:07;29.35;;;27.85;;
9254;SDS011;4663;49.120;9.730;2022-09-01T09:50:53;29.15;;;27.55;;
9254;SDS011;4663;49.120;9.730;2022-09-01T09:53:29;29.08;;;27.38;;
9254;SDS011;4663;49.120;9.730;2022-09-01T09:58:42;27.65;;;26.23;;
9254;SDS011;4663;49.120;9.730;2022-09-01T10:03:56;26.30;;;24.90;;
9254;SDS011;4663;49.120;9.730;2022-09-01T10:08:55;26.75;;;25.35;;
9254;SDS011;4663;49.120;9.730;2022-09-01T10:11:26;41.25;;;39.13;;
9254;SDS011;4663;49.120;9.730;2022-09-01T10:13:55;26.33;;;24.90;;
9254;SDS011;4663;49.120;9.730;2022-09-01T10:16:24;25.38;;;23.98;;
9254;SDS011;4663;49.120;9.730;2022-09-01T10:18:54;26.13;;;24.73;;
9254;SDS011;4663;49.120;9.730;2022-09-01T10:21:30;25.60;;;24.30;;
9254;SDS011;4663;49.120;9.730;2022-09-01T10:24:18;25.27;;;23.98;;
9254;SDS011;4663;49.120;9.730;2022-09-01T10:26:52;26.25;;;24.92;;
9254;SDS011;4663;49.120;9.730;2022-09-01T10:29:24;26.40;;;24.98;;
9254;SDS011;4663;49.120;9.730;2022-09-01T10:31:54;23.83;;;22.63;;
9254;SDS011;4663;49.120;9.730;2022-09-01T10:34:20;25.27;;;23.98;;
9254;SDS011;4663;49.120;9.730;2022-09-01T10:36:47;25.48;;;24.17;;
9254;SDS011;4663;49.120;9.730;2022-09-01T10:39:15;24.27;;;23.00;;
9254;SDS011;4663;49.120;9.730;2022-09-01T10:41:43;26.50;;;25.17;;
9254;SDS011;4663;49.120;9.730;2022-09-01T10:44:19;25.05;;;23.75;;
9254;SDS011;4663;49.120;9.730;2022-09-01T10:46:47;26.65;;;25.25;;
9254;SDS011;4663;49.120;9.730;2022-09-01T10:49:21;25.92;;;24.42;;
9254;SDS011;4663;49.120;9.730;2022-09-01T10:52:01;27.13;;;25.73;;
9254;SDS011;4663;49.120;9.730;2022-09-01T10:57:24;28.17;;;26.77;;
9254;SDS011;4663;49.120;9.730;2022-09-01T11:06:11;25.33;;;24.02;;
9254;SDS011;4663;49.120;9.730;2022-09-01T11:11:03;25.55;;;24.25;;
9254;SDS011;4663;49.120;9.730;2022-09-01T11:13:55;25.05;;;23.75;;
9254;SDS011;4663;49.120;9.730;2022-09-01T11:16:30;24.63;;;23.23;;
9254;SDS011;4663;49.120;9.730;2022-09-01T11:21:47;25.25;;;24.02;;
9254;SDS011;4663;49.120;9.730;2022-09-01T11:27:12;23.58;;;22.35;;
9254;SDS011;4663;49.120;9.730;2022-09-01T11:30:21;25.38;;;24.10;;
9254;SDS011;4663;49.120;9.730;2022-09-01T11:32:56;25.30;;;24.00;;
9254;SDS011;4663;49.120;9.730;2022-09-01T11:35:32;24.85;;;23.65;;
9254;SDS011;4663;49.120;9.730;2022-09-01T11:38:01;25.77;;;24.48;;
9254;SDS011;4663;49.120;9.730;2022-09-01T11:40:31;27.17;;;25.85;;
9254;SDS011;4663;49.120;9.730;2022-09-01T11:42:59;25.30;;;24.00;;
9254;SDS011;4663;49.120;9.730;2022-09-01T11:46:24;26.58;;;25.27;;
9254;SDS011;4663;49.120;9.730;2022-09-01T11:48:46;25.40;;;24.13;;
9254;SDS011;4663;49.120;9.730;2022-09-01T11:51:13;25.77;;;24.48;;
9254;SDS011;4663;49.120;9.730;2022-09-01T11:53:39;25.17;;;23.95;;
9254;SDS011;4663;49.120;9.730;2022-09-01T11:56:12;27.30;;;25.80;;
9254;SDS011;4663;49.120;9.730;2022-09-01T11:58:38;25.85;;;24.55;;
9254;SDS011;4663;49.120;9.730;2022-09-01T12:04:18;26.08;;;24.65;;
9254;SDS011;4663;49.120;9.730;2022-09-01T12:06:57;29.45;;;27.85;;
9254;SDS011;4663;49.120;9.730;2022-09-01T12:09:41;25.85;;;24.45;;
9254;SDS011;4663;49.120;9.730;2022-09-01T12:12:24;24.77;;;23.58;;
9254;SDS011;4663;49.120;9.730;2022-09-01T12:15:03;28.35;;;26.92;;
9254;SDS011;4663;49.120;9.730;2022-09-01T12:17:33;27.20;;;25.90;;
9254;SDS011;4663;49.120;9.730;2022-09-01T12:22:52;26.80;;;25.50;;
9254;SDS011;4663;49.120;9.730;2022-09-01T12:25:20;28.02;;;26.52;;
9254;SDS011;4663;49.120;9.730;2022-09-01T12:27:48;29.00;;;27.50;;
9254;SDS011;4663;49.120;9.730;2022-09-01T12:30:14;27.38;;;26.05;;
9254;SDS011;4663;49.120;9.730;2022-09-01T12:32:40;27.98;;;26.27;;
9254;SDS011;4663;49.120;9.730;2022-09-01T12:35:13;27.02;;;25.60;;
9254;SDS011;4663;49.120;9.730;2022-09-01T12:37:43;23.75;;;22.65;;
9254;SDS011;4663;49.120;9.730;2022-09-01T12:42:49;22.65;;;21.55;;
9254;SDS011;4663;49.120;9.730;2022-09-01T12:45:34;22.13;;;21.02;;
9254;SDS011;4663;49.120;9.730;2022-09-01T12:48:04;22.40;;;21.30;;
9254;SDS011;4663;49.120;9.730;2022-09-01T12:50:32;23.95;;;22.70;;
9254;SDS011;4663;49.120;9.730;2022-09-01T12:53:00;24.00;;;22.80;;
9254;SDS011;4663;49.120;9.730;2022-09-01T12:55:30;21.75;;;20.50;;
9254;SDS011;4663;49.120;9.730;2022-09-01T12:57:58;22.95;;;21.85;;
9254;SDS011;4663;49.120;9.730;2022-09-01T13:00:29;26.05;;;24.75;;
9254;SDS011;4663;49.120;9.730;2022-09-01T13:03:18;25.98;;;24.70;;
9254;SDS011;4663;49.120;9.730;2022-09-01T13:05:46;25.38;;;24.17;;
9254;SDS011;4663;49.120;9.730;2022-09-01T13:08:26;24.08;;;22.88;;
9254;SDS011;4663;49.120;9.730;2022-09-01T13:10:55;26.02;;;24.73;;
9254;SDS011;4663;49.120;9.730;2022-09-01T13:13:26;27.90;;;26.50;;
9254;SDS011;4663;49.120;9.730;2022-09-01T13:15:54;27.85;;;26.35;;
9254;SDS011;4663;49.120;9.730;2022-09-01T13:18:23;25.33;;;24.13;;
9254;SDS011;4663;49.120;9.730;2022-09-01T13:20:49;25.77;;;24.58;;
9254;SDS011;4663;49.120;9.730;2022-09-01T13:23:17;25.83;;;24.42;;
9254;SDS011;4663;49.120;9.730;2022-09-01T13:25:42;26.58;;;25.27;;
9254;SDS011;4663;49.120;9.730;2022-09-01T13:28:11;26.20;;;24.77;;
9254;SDS011;4663;49.120;9.730;2022-09-01T13:30:38;27.92;;;26.60;;
9254;SDS011;4663;49.120;9.730;2022-09-01T13:33:04;26.33;;;25.02;;
9254;SDS011;4663;49.120;9.730;2022-09-01T13:35:30;25.55;;;24.25;;
9254;SDS011;4663;49.120;9.730;2022-09-01T13:37:55;25.95;;;24.65;;
9254;SDS011;4663;49.120;9.730;2022-09-01T13:40:21;26.08;;;24.83;;
9254;SDS011;4663;49.120;9.730;2022-09-01T13:42:48;24.65;;;23.48;;
9254;SDS011;4663;49.120;9.730;2022-09-01T13:45:16;25.15;;;23.95;;
9254;SDS011;4663;49.120;9.730;2022-09-01T13:47:44;26.98;;;25.67;;
9254;SDS011;4663;49.120;9.730;2022-09-01T13:50:12;25.45;;;24.17;;
9254;SDS011;4663;49.120;9.730;2022-09-01T13:52:40;25.95;;;24.70;;
9254;SDS011;4663;49.120;9.730;2022-09-01T13:55:11;25.17;;;23.38;;
9254;SDS011;4663;49.120;9.730;2022-09-01T13:57:39;26.08;;;24.77;;
9254;SDS011;4663;49.120;9.730;2022-09-01T14:00:05;25.80;;;24.50;;
9254;SDS011;4663;49.120;9.730;2022-09-01T14:02:37;24.83;;;23.52;;
9254;SDS011;4663;49.120;9.730;2022-09-01T14:05:04;26.25;;;24.95;;
9254;SDS011;4663;49.120;9.730;2022-09-01T14:07:30;26.52;;;25.20;;
9254;SDS011;4663;49.120;9.730;2022-09-01T14:09:56;26.60;;;25.30;;
9254;SDS011;4663;49.120;9.730;2022-09-01T14:12:21;25.73;;;24.42;;
9254;SDS011;4663;49.120;9.730;2022-09-01T14:14:47;26.15;;;24.85;;
9254;SDS011;4663;49.120;9.730;2022-09-01T14:17:12;26.92;;;25.55;;
9254;SDS011;4663;49.120;9.730;2022-09-01T14:19:37;25.75;;;24.45;;
9254;SDS011;4663;49.120;9.730;2022-09-01T14:22:03;24.27;;;23.08;;
9254;SDS011;4663;49.120;9.730;2022-09-01T14:24:30;24.70;;;23.50;;
9254;SDS011;4663;49.120;9.730;2022-09-01T14:26:58;23.70;;;22.50;;
9254;SDS011;4663;49.120;9.730;2022-09-01T14:29:23;24.80;;;23.48;;
9254;SDS011;4663;49.120;9.730;2022-09-01T14:31:49;25.70;;;24.40;;
9254;SDS011;4663;49.120;9.730;2022-09-01T14:34:15;26.05;;;24.70;;
9254;SDS011;4663;49.120;9.730;2022-09-01T14:36:43;24.35;;;23.17;;
9254;SDS011;4663;49.120;9.730;2022-09-01T14:39:09;23.95;;;22.83;;
9254;SDS011;4663;49.120;9.730;2022-09-01T14:41:35;25.42;;;24.13;;
9254;SDS011;4663;49.120;9.730;2022-09-01T14:44:00;26.55;;;25.30;;
9254;SDS011;4663;49.120;9.730;2022-09-01T14:46:26;24.50;;;23.30;;
9254;SDS011;4663;49.120;9.730;2022-09-01T14:48:54;26.38;;;25.10;;
9254;SDS011;4663;49.120;9.730;2022-09-01T14:51:24;24.13;;;23.00;;
9254;SDS011;4663;49.120;9.730;2022-09-01T14:53:53;26.55;;;25.27;;
9254;SDS011;4663;49.120;9.730;2022-09-01T14:56:19;23.83;;;22.73;;
9254;SDS011;4663;49.120;9.730;2022-09-01T14:58:45;25.98;;;24.70;;
9254;SDS011;4663;49.120;9.730;2022-09-01T15:01:16;26.45;;;25.15;;
9254;SDS011;4663;49.120;9.730;2022-09-01T15:03:45;24.05;;;22.88;;
9254;SDS011;4663;49.120;9.730;2022-09-01T15:06:12;23.85;;;22.65;;
9254;SDS011;4663;49.120;9.730;2022-09-01T15:08:38;25.92;;;24.65;;
9254;SDS011;4663;49.120;9.730;2022-09-01T15:11:08;26.30;;;25.02;;
9254;SDS011;4663;49.120;9.730;2022-09-01T15:13:39;24.65;;;23.45;;
9254;SDS011;4663;49.120;9.730;2022-09-01T15:16:11;23.92;;;22.73;;
9254;SDS011;4663;49.120;9.730;2022-09-01T15:18:40;23.60;;;22.50;;
9254;SDS011;4663;49.120;9.730;2022-09-01T15:21:06;23.25;;;22.15;;
9254;SDS011;4663;49.120;9.730;2022-09-01T15:23:31;24.30;;;23.05;;
9254;SDS011;4663;49.120;9.730;2022-09-01T15:25:56;23.20;;;22.10;;
9254;SDS011;4663;49.120;9.730;2022-09-01T15:28:23;22.23;;;21.13;;
9254;SDS011;4663;49.120;9.730;2022-09-01T15:30:49;22.33;;;21.23;;
9254;SDS011;4663;49.120;9.730;2022-09-01T15:33:15;23.70;;;22.50;;
9254;SDS011;4663;49.120;9.730;2022-09-01T15:35:42;23.38;;;22.27;;
9254;SDS011;4663;49.120;9.730;2022-09-01T15:38:08;23.83;;;22.70;;
9254;SDS011;4663;49.120;9.730;2022-09-01T15:40:37;24.35;;;23.20;;
9254;SDS011;4663;49.120;9.730;2022-09-01T15:43:04;22.98;;;21.88;;
9254;SDS011;4663;49.120;9.730;2022-09-01T15:45:30;24.15;;;23.05;;
9254;SDS011;4663;49.120;9.730;2022-09-01T15:47:55;23.58;;;22.48;;
9254;SDS011;4663;49.120;9.730;2022-09-01T15:50:22;24.90;;;23.65;;
9254;SDS011;4663;49.120;9.730;2022-09-01T15:52:54;24.88;;;23.67;;
9254;SDS011;4663;49.120;9.730;2022-09-01T15:55:22;23.63;;;22.45;;
9254;SDS011;4663;49.120;9.730;2022-09-01T15:57:52;22.42;;;21.33;;
9254;SDS011;4663;49.120;9.730;2022-09-01T16:00:19;23.63;;;22.45;;
9254;SDS011;4663;49.120;9.730;2022-09-01T16:02:46;23.23;;;22.10;;
9254;SDS011;4663;49.120;9.730;2022-09-01T16:05:12;26.27;;;25.08;;
9254;SDS011;4663;49.120;9.730;2022-09-01T16:07:38;25.52;;;24.33;;